This is the latest recevied weather packets stored in our database for station/object K0CPM-2. If no packets are shown the sender has not sent any weather packets the latest 10 day(s).
| Time | Temp. | Humidity | Pressure | Rain* | Wind** | Luminosity | Snow |
|---|---|---|---|---|---|---|---|
| 1777513504 | 25° C | 85% | 1009.8 hPa | 0 mm | - | - | - |
| 1777512603 | 25° C | 85% | 1009.8 hPa | 0 mm | - | - | - |
| 1777511702 | 25° C | 84% | 1009.6 hPa | 0 mm | - | - | - |
| 1777510801 | 25.56° C | 83% | 1008.9 hPa | 0 mm | - | - | - |
| 1777509960 | 25.56° C | 82% | 1008.6 hPa | 0 mm | - | - | - |
| 1777509060 | 26.11° C | 81% | 1008.4 hPa | 0 mm | - | - | - |
| 1777508170 | 26.11° C | 80% | 1008.4 hPa | 0 mm | - | - | - |
| 1777507259 | 26.67° C | 79% | 1008.3 hPa | 0 mm | - | - | - |
| 1777506357 | 26.67° C | 78% | 1008.3 hPa | 0 mm | - | - | - |
| 1777505460 | 26.67° C | 78% | 1008.4 hPa | 0 mm | - | - | - |
| 1777504561 | 26.67° C | 78% | 1008.2 hPa | 0 mm | - | - | - |
| 1777503656 | 26.67° C | 76% | 1007.8 hPa | 0 mm | - | - | - |
| 1777502755 | 27.22° C | 76% | 1007.6 hPa | 0 mm | - | - | - |
| 1777501859 | 28.33° C | 73% | 1007.9 hPa | 0 mm | - | - | - |
| 1777500954 | 28.33° C | 72% | 1007.9 hPa | 0 mm | - | - | - |
| 1777500054 | 29.44° C | 71% | 1007.3 hPa | 0 mm | - | - | - |
| 1777499167 | 28.89° C | 71% | 1007.5 hPa | 0 mm | - | - | - |
| 1777498249 | 29.44° C | 70% | 1007.8 hPa | 0 mm | - | - | - |
| 1777497347 | 29.44° C | 68% | 1008.2 hPa | 0 mm | - | - | - |
| 1777496450 | 30.56° C | 63% | 1008.2 hPa | 0 mm | - | - | - |
| 1777495544 | 30.56° C | 64% | 1008.2 hPa | 0 mm | - | - | - |
| 1777494644 | 30.56° C | 65% | 1008.3 hPa | 0 mm | - | - | - |
| 1777493741 | 31.11° C | 64% | 1008.9 hPa | 0 mm | - | - | - |
| 1777492840 | 31.11° C | 63% | 1009.2 hPa | 0 mm | - | - | - |
| 1777491937 | 31.11° C | 65% | 1009.3 hPa | 0 mm | - | - | - |
* Rain latest hour (hover to see other rain measurements)
** Current wind speed in m/s (hover to see current wind gust speed)